createdAt,value
2018-03-08T00:00:51.806Z,22.37
2018-03-08T00:03:19.510Z,20.30
2018-03-08T00:05:47.110Z,23.93
2018-03-08T00:08:14.832Z,24.83
2018-03-08T00:10:42.597Z,28.10
2018-03-08T00:13:10.240Z,28.70
2018-03-08T00:15:37.919Z,25.40
2018-03-08T00:18:05.584Z,26.60
2018-03-08T00:20:33.215Z,30.27
2018-03-08T00:23:00.817Z,24.67
2018-03-08T00:25:28.448Z,32.63
2018-03-08T00:27:56.131Z,23.67
2018-03-08T00:30:23.759Z,31.10
2018-03-08T00:32:51.366Z,31.60
2018-03-08T00:35:19.005Z,26.47
2018-03-08T00:37:46.679Z,28.77
2018-03-08T00:40:14.317Z,32.47
2018-03-08T00:42:41.928Z,30.87
2018-03-08T00:45:09.565Z,30.10
2018-03-08T00:47:37.167Z,30.50
2018-03-08T00:50:04.892Z,33.10
2018-03-08T00:52:32.499Z,33.90
2018-03-08T00:55:00.116Z,27.67
2018-03-08T00:57:27.779Z,33.47
2018-03-08T00:59:55.446Z,34.40
2018-03-08T01:02:23.112Z,32.57
2018-03-08T01:04:50.711Z,34.53
2018-03-08T01:07:18.436Z,30.43
2018-03-08T01:09:46.072Z,38.97
2018-03-08T01:12:13.695Z,29.70
2018-03-08T01:14:41.300Z,37.73
2018-03-08T01:17:09.475Z,37.23
2018-03-08T01:19:37.084Z,32.43
2018-03-08T01:22:04.729Z,33.87
2018-03-08T01:24:32.331Z,43.00
2018-03-08T01:26:59.946Z,41.87
2018-03-08T01:29:27.611Z,37.97
2018-03-08T01:31:55.227Z,39.83
2018-03-08T01:34:22.859Z,37.53
2018-03-08T01:36:50.496Z,43.60
2018-03-08T01:39:18.151Z,42.83
2018-03-08T01:41:45.755Z,34.17
2018-03-08T01:44:13.472Z,35.97
2018-03-08T01:46:41.145Z,32.70
2018-03-08T01:49:08.800Z,32.83
2018-03-08T01:51:36.465Z,36.67
2018-03-08T01:54:04.193Z,37.53
2018-03-08T01:56:31.800Z,37.73
2018-03-08T01:58:59.451Z,37.00
2018-03-08T02:01:27.076Z,39.97
2018-03-08T02:03:54.776Z,51.43
2018-03-08T02:06:22.396Z,45.70
2018-03-08T02:08:50.003Z,35.30
2018-03-08T02:11:17.641Z,44.30
2018-03-08T02:13:45.239Z,39.20
2018-03-08T02:16:12.858Z,53.63
2018-03-08T02:18:40.547Z,49.17
2018-03-08T02:21:08.213Z,49.23
2018-03-08T02:23:35.871Z,49.00
2018-03-08T02:26:03.540Z,47.30
2018-03-08T02:28:31.167Z,37.90
2018-03-08T02:30:58.768Z,45.60
2018-03-08T02:33:26.395Z,50.27
2018-03-08T02:35:54.008Z,48.70
2018-03-08T02:38:21.647Z,46.53
2018-03-08T02:40:49.318Z,45.13
2018-03-08T02:43:16.972Z,47.50
2018-03-08T02:45:44.577Z,59.30
2018-03-08T02:48:12.229Z,56.10
2018-03-08T02:50:39.836Z,59.47
2018-03-08T02:53:07.444Z,52.10
2018-03-08T02:55:35.187Z,48.00
2018-03-08T02:58:02.792Z,52.07
2018-03-08T03:00:30.516Z,47.87
2018-03-08T03:02:58.121Z,50.57
2018-03-08T03:05:25.748Z,60.53
2018-03-08T03:07:53.352Z,55.17
2018-03-08T03:10:20.980Z,48.93
2018-03-08T03:12:48.588Z,53.43
2018-03-08T03:15:16.217Z,61.43
2018-03-08T03:17:43.825Z,55.77
2018-03-08T03:20:11.451Z,63.53
2018-03-08T03:22:39.057Z,67.97
2018-03-08T03:25:06.718Z,62.03
2018-03-08T03:27:34.320Z,54.57
2018-03-08T03:30:01.926Z,58.93
2018-03-08T03:32:29.564Z,63.07
2018-03-08T03:34:57.168Z,70.63
2018-03-08T03:37:24.804Z,71.60
2018-03-08T03:39:52.500Z,70.63
2018-03-08T03:42:20.127Z,59.73
2018-03-08T03:44:47.728Z,62.30
2018-03-08T03:47:15.388Z,54.70
2018-03-08T03:49:42.991Z,76.40
2018-03-08T03:52:10.616Z,74.17
2018-03-08T03:54:38.272Z,79.13
2018-03-08T03:57:05.899Z,64.17
2018-03-08T03:59:33.500Z,75.10
2018-03-08T04:02:01.166Z,81.00
2018-03-08T04:04:28.787Z,70.83
2018-03-08T04:06:56.400Z,76.70
2018-03-08T04:09:24.028Z,72.67
2018-03-08T04:11:51.649Z,71.63
2018-03-08T04:14:19.272Z,77.60
2018-03-08T04:16:46.935Z,70.00
2018-03-08T04:19:14.595Z,78.60
2018-03-08T04:21:42.196Z,68.43
2018-03-08T04:24:09.832Z,83.87
2018-03-08T04:26:37.436Z,78.13
2018-03-08T04:29:05.087Z,76.10
2018-03-08T04:31:32.804Z,82.70
2018-03-08T04:34:00.414Z,71.97
2018-03-08T04:36:28.132Z,76.30
2018-03-08T04:38:55.796Z,70.73
2018-03-08T04:41:23.428Z,72.33
2018-03-08T04:43:51.040Z,82.73
2018-03-08T04:46:18.664Z,76.07
2018-03-08T04:48:46.271Z,71.20
2018-03-08T04:51:13.899Z,80.03
2018-03-08T04:53:41.504Z,73.63
2018-03-08T04:56:09.136Z,81.83
2018-03-08T04:58:36.737Z,86.07
2018-03-08T05:01:04.367Z,65.30
2018-03-08T05:03:32.015Z,77.30
2018-03-08T05:05:59.660Z,73.67
2018-03-08T05:08:27.265Z,76.30
2018-03-08T05:10:54.999Z,106.55
2018-03-08T05:13:22.628Z,79.30
2018-03-08T05:15:50.332Z,98.63
2018-03-08T05:18:17.960Z,98.77
2018-03-08T05:20:45.563Z,91.27
2018-03-08T05:23:13.188Z,83.90
2018-03-08T05:25:40.885Z,96.27
2018-03-08T05:28:08.520Z,89.93
2018-03-08T05:30:36.125Z,98.97
2018-03-08T05:33:03.757Z,101.53
2018-03-08T05:35:31.427Z,102.60
2018-03-08T05:37:59.188Z,87.53
2018-03-08T05:40:26.800Z,94.03
2018-03-08T05:42:54.435Z,93.43
2018-03-08T05:45:22.082Z,102.90
2018-03-08T05:47:49.711Z,104.60
2018-03-08T05:50:17.321Z,91.30
2018-03-08T05:52:45.068Z,126.60
2018-03-08T05:55:13.348Z,108.10
2018-03-08T05:57:40.983Z,114.00
2018-03-08T06:00:08.596Z,114.07
2018-03-08T06:02:36.223Z,128.13
2018-03-08T06:05:03.827Z,125.00
2018-03-08T06:07:31.461Z,128.63
2018-03-08T06:09:59.072Z,136.17
2018-03-08T06:12:26.700Z,137.63
2018-03-08T06:14:54.312Z,153.93
2018-03-08T06:17:21.968Z,120.97
2018-03-08T06:19:49.660Z,125.73
2018-03-08T06:22:17.268Z,131.93
2018-03-08T06:24:44.900Z,135.30
2018-03-08T06:27:12.505Z,123.73
2018-03-08T06:29:40.140Z,131.93
2018-03-08T06:32:07.750Z,117.40
2018-03-08T06:34:35.388Z,116.23
2018-03-08T06:37:03.001Z,103.67
2018-03-08T06:39:30.654Z,127.00
2018-03-08T06:41:58.265Z,120.83
2018-03-08T06:44:25.984Z,121.10
2018-03-08T06:46:53.750Z,116.23
2018-03-08T06:49:21.412Z,114.30
2018-03-08T06:51:49.021Z,117.07
2018-03-08T06:54:16.745Z,110.00
2018-03-08T06:56:44.397Z,127.17
2018-03-08T06:59:12.064Z,108.00
2018-03-08T07:01:39.692Z,112.07
2018-03-08T07:04:07.300Z,108.10
2018-03-08T07:06:34.932Z,112.50
2018-03-08T07:09:02.610Z,111.57
2018-03-08T07:11:30.284Z,132.37
2018-03-08T07:13:57.891Z,104.50
2018-03-08T07:16:25.524Z,109.80
2018-03-08T07:18:53.131Z,100.57
2018-03-08T07:21:20.760Z,105.77
2018-03-08T07:23:48.373Z,97.10
2018-03-08T07:26:16.145Z,102.07
2018-03-08T07:28:43.844Z,101.27
2018-03-08T07:31:11.580Z,89.40
2018-03-08T07:33:39.184Z,95.27
2018-03-08T07:36:06.816Z,95.23
2018-03-08T07:38:34.468Z,99.10
2018-03-08T07:41:02.081Z,88.50
2018-03-08T07:43:29.708Z,98.40
2018-03-08T07:45:57.447Z,89.03
2018-03-08T07:48:25.111Z,94.27
2018-03-08T07:50:52.715Z,101.47
2018-03-08T07:53:20.344Z,92.47
2018-03-08T07:55:47.953Z,86.23
2018-03-08T07:58:15.584Z,93.03
2018-03-08T08:00:43.189Z,90.33
2018-03-08T08:03:10.815Z,85.23
2018-03-08T08:08:54.748Z,84.63
2018-03-08T08:11:22.413Z,88.53
2018-03-08T08:13:50.039Z,86.80
2018-03-08T08:16:17.737Z,84.03
2018-03-08T08:18:45.399Z,80.97
2018-03-08T08:21:13.064Z,93.17
2018-03-08T08:23:40.733Z,82.20
2018-03-08T08:26:08.388Z,80.47
2018-03-08T08:28:36.052Z,87.80
2018-03-08T08:31:03.814Z,87.77
2018-03-08T08:33:31.417Z,96.30
2018-03-08T08:35:59.045Z,85.03
2018-03-08T08:38:26.648Z,87.50
2018-03-08T08:40:54.280Z,89.27
2018-03-08T08:43:21.880Z,91.17
2018-03-08T08:45:49.624Z,74.33
2018-03-08T08:48:17.356Z,87.73
2018-03-08T08:50:44.985Z,73.47
2018-03-08T08:53:12.592Z,84.57
2018-03-08T08:55:40.246Z,80.87
2018-03-08T08:58:07.849Z,69.07
2018-03-08T09:00:35.480Z,85.47
2018-03-08T09:03:03.086Z,99.20
2018-03-08T09:05:30.712Z,86.17
2018-03-08T09:07:58.336Z,89.30
2018-03-08T09:10:25.947Z,97.07
2018-03-08T09:12:53.580Z,102.70
2018-03-08T09:15:21.676Z,93.83
2018-03-08T09:17:48.604Z,92.50
2018-03-08T09:20:16.256Z,98.67
2018-03-08T09:22:44.540Z,105.30
2018-03-08T09:25:12.191Z,89.87
2018-03-08T09:27:39.863Z,119.13
2018-03-08T09:30:07.524Z,105.53
2018-03-08T09:32:35.160Z,104.57
2018-03-08T09:35:02.847Z,102.77
2018-03-08T09:37:30.504Z,116.33
2018-03-08T09:39:58.107Z,104.97
2018-03-08T09:42:25.740Z,113.83
2018-03-08T09:44:53.353Z,112.87
2018-03-08T09:47:21.001Z,110.80
2018-03-08T09:49:48.730Z,107.67
2018-03-08T09:52:16.336Z,105.77
2018-03-08T09:54:43.970Z,105.83
2018-03-08T09:57:11.602Z,97.83
2018-03-08T09:59:39.273Z,106.67
2018-03-08T10:02:06.877Z,97.93
2018-03-08T10:04:34.904Z,112.83
2018-03-08T10:07:02.544Z,109.40
2018-03-08T10:09:30.171Z,101.70
2018-03-08T10:11:57.786Z,104.17
2018-03-08T10:14:25.470Z,106.17
2018-03-08T10:16:53.081Z,99.93
2018-03-08T10:19:20.716Z,102.33
2018-03-08T10:21:48.347Z,113.47
2018-03-08T10:24:15.996Z,105.97
2018-03-08T10:26:43.628Z,111.17
2018-03-08T10:29:11.237Z,108.57
2018-03-08T10:31:38.870Z,112.33
2018-03-08T10:34:06.552Z,107.03
2018-03-08T10:36:34.183Z,112.83
2018-03-08T10:39:01.796Z,114.93
2018-03-08T10:43:57.059Z,103.03
2018-03-08T10:46:24.755Z,94.53
2018-03-08T10:51:20.152Z,102.57
2018-03-08T10:53:47.756Z,112.10
2018-03-08T10:56:15.463Z,111.83
2018-03-08T10:58:43.076Z,105.20
2018-03-08T11:01:16.396Z,94.53
2018-03-08T11:03:48.791Z,85.17
2018-03-08T11:09:14.685Z,99.80
2018-03-08T11:11:42.344Z,92.20
2018-03-08T11:14:09.958Z,84.00
2018-03-08T11:16:37.592Z,89.63
2018-03-08T11:19:05.207Z,89.20
2018-03-08T11:21:32.904Z,84.30
2018-03-08T11:24:00.556Z,86.00
2018-03-08T11:26:28.230Z,76.43
2018-03-08T11:28:55.894Z,71.33
2018-03-08T11:31:23.556Z,66.83
2018-03-08T11:33:51.212Z,59.10
2018-03-08T11:36:18.815Z,73.07
2018-03-08T11:38:46.451Z,62.67
2018-03-08T11:41:14.059Z,59.93
2018-03-08T11:43:41.756Z,55.03
2018-03-08T11:46:09.365Z,51.50
2018-03-08T11:48:37.000Z,32.97
2018-03-08T11:51:04.648Z,52.97
2018-03-08T11:53:33.665Z,59.70
2018-03-08T11:55:59.955Z,44.83
2018-03-08T11:58:27.588Z,45.63
2018-03-08T12:00:55.300Z,46.23
2018-03-08T12:03:22.909Z,46.07
2018-03-08T12:05:50.585Z,32.33
2018-03-08T12:08:18.168Z,46.33
2018-03-08T12:10:45.800Z,45.00
2018-03-08T12:13:13.420Z,42.00
2018-03-08T12:15:41.058Z,42.07
2018-03-08T12:18:08.736Z,39.87
2018-03-08T12:20:36.400Z,41.63
2018-03-08T12:23:04.003Z,53.27
2018-03-08T12:25:31.628Z,41.10
2018-03-08T12:27:59.240Z,36.97
2018-03-08T12:30:26.872Z,37.80
2018-03-08T12:32:54.495Z,31.30
2018-03-08T12:35:22.149Z,34.63
2018-03-08T12:37:49.764Z,32.70
2018-03-08T12:40:17.376Z,29.23
2018-03-08T12:42:45.052Z,31.10
2018-03-08T12:45:12.716Z,31.93
2018-03-08T12:47:40.348Z,32.20
2018-03-08T12:50:08.045Z,34.90
2018-03-08T12:52:35.676Z,26.93
2018-03-08T12:55:03.293Z,25.53
2018-03-08T12:57:31.028Z,23.50
2018-03-08T12:59:58.632Z,28.33
2018-03-08T13:02:26.269Z,22.13
2018-03-08T13:04:53.167Z,23.43
2018-03-08T13:07:20.797Z,22.93
2018-03-08T13:09:48.420Z,24.93
2018-03-08T13:12:16.061Z,22.10
2018-03-08T13:14:43.743Z,23.83
2018-03-08T13:17:11.533Z,21.70
2018-03-08T13:19:39.172Z,26.10
2018-03-08T13:22:06.836Z,20.03
2018-03-08T13:24:34.697Z,22.20
2018-03-08T13:27:02.300Z,19.90
2018-03-08T13:29:29.928Z,15.03
2018-03-08T13:31:57.592Z,22.73
2018-03-08T13:34:25.224Z,21.77
2018-03-08T13:36:52.912Z,21.37
2018-03-08T13:39:20.575Z,20.87
2018-03-08T13:41:48.239Z,24.13
2018-03-08T13:44:15.908Z,25.43
2018-03-08T13:46:43.523Z,18.13
2018-03-08T13:49:22.910Z,18.50
2018-03-08T13:51:50.572Z,21.27
2018-03-08T13:54:18.231Z,22.30
2018-03-08T13:56:45.902Z,22.60
2018-03-08T13:59:13.560Z,27.73
2018-03-08T14:01:41.188Z,25.23
2018-03-08T14:04:08.812Z,29.43
2018-03-08T14:06:36.446Z,30.00
2018-03-08T14:09:04.057Z,30.63
2018-03-08T14:11:31.692Z,25.77
2018-03-08T14:13:59.333Z,26.47
2018-03-08T14:16:26.987Z,27.40
2018-03-08T14:18:54.656Z,28.60
2018-03-08T14:21:22.317Z,28.80
2018-03-08T14:23:49.928Z,30.33
2018-03-08T14:26:17.561Z,28.47
2018-03-08T14:28:45.174Z,27.67
2018-03-08T14:31:12.868Z,33.50
2018-03-08T14:33:40.485Z,32.50
2018-03-08T14:36:08.092Z,31.80
2018-03-08T14:38:35.729Z,36.33
2018-03-08T14:41:03.340Z,31.07
2018-03-08T14:43:30.977Z,34.50
2018-03-08T14:45:58.636Z,34.30
2018-03-08T14:48:26.272Z,43.00
2018-03-08T14:50:53.960Z,39.70
2018-03-08T14:53:21.588Z,39.70
2018-03-08T14:55:49.197Z,38.30
2018-03-08T14:58:16.828Z,37.23
2018-03-08T15:00:44.432Z,37.13
2018-03-08T15:03:12.065Z,33.80
2018-03-08T15:05:39.676Z,36.37
2018-03-08T15:08:07.400Z,36.80
2018-03-08T15:10:35.056Z,40.40
2018-03-08T15:13:02.669Z,39.13
2018-03-08T15:15:30.300Z,37.80
2018-03-08T15:17:57.949Z,38.70
2018-03-08T15:20:25.604Z,45.93
2018-03-08T15:22:53.212Z,35.23
2018-03-08T15:25:20.836Z,36.17
2018-03-08T15:27:48.443Z,42.00
2018-03-08T15:30:16.082Z,41.87
2018-03-08T15:32:43.696Z,43.70
2018-03-08T15:35:11.323Z,41.93
2018-03-08T15:37:39.052Z,50.03
2018-03-08T15:40:06.851Z,45.73
2018-03-08T15:42:34.436Z,45.77
2018-03-08T15:45:02.133Z,43.80
2018-03-08T15:47:29.804Z,45.83
2018-03-08T15:49:57.416Z,48.33
2018-03-08T15:52:25.059Z,51.97
2018-03-08T15:54:52.664Z,44.70
2018-03-08T15:57:20.343Z,45.90
2018-03-08T15:59:48.013Z,45.33
2018-03-08T16:02:15.640Z,45.73
2018-03-08T16:04:43.331Z,51.73
2018-03-08T16:07:40.716Z,41.43
2018-03-08T16:10:24.028Z,47.67
2018-03-08T16:12:51.652Z,55.03
2018-03-08T16:15:19.257Z,52.63
2018-03-08T16:17:46.913Z,51.90
2018-03-08T16:20:14.515Z,60.60
2018-03-08T16:22:42.148Z,77.73
2018-03-08T16:25:09.789Z,72.67
2018-03-08T16:27:37.420Z,64.70
2018-03-08T16:30:05.020Z,53.53
2018-03-08T16:32:32.645Z,56.37
2018-03-08T16:35:00.345Z,69.83
2018-03-08T16:37:28.004Z,63.97
2018-03-08T16:39:55.669Z,66.30
2018-03-08T16:42:23.299Z,65.03
2018-03-08T16:44:51.051Z,61.22
2018-03-08T16:47:18.656Z,77.57
2018-03-08T16:49:46.264Z,68.93
2018-03-08T16:52:13.979Z,64.83
2018-03-08T16:54:41.648Z,65.80
2018-03-08T16:57:09.308Z,67.97
2018-03-08T16:59:36.936Z,60.10
2018-03-08T17:02:04.632Z,62.00
2018-03-08T17:04:32.314Z,65.30
2018-03-08T17:06:59.900Z,68.63
2018-03-08T17:09:27.621Z,71.60
2018-03-08T17:11:55.226Z,69.33
2018-03-08T17:14:22.944Z,75.50
2018-03-08T17:16:50.601Z,66.77
2018-03-08T17:19:18.277Z,64.67
2018-03-08T17:21:45.893Z,71.53
2018-03-08T17:24:13.540Z,69.20
2018-03-08T17:26:41.144Z,74.67
2018-03-08T17:29:08.768Z,79.30
2018-03-08T17:31:36.376Z,68.00
2018-03-08T17:34:03.999Z,67.70
2018-03-08T17:36:31.604Z,72.90
2018-03-08T17:38:59.232Z,65.77
2018-03-08T17:41:26.964Z,70.37
2018-03-08T17:43:54.592Z,67.63
2018-03-08T17:46:22.200Z,64.93
2018-03-08T17:48:49.919Z,86.53
2018-03-08T17:51:18.370Z,68.47
2018-03-08T17:53:45.976Z,71.97
2018-03-08T17:56:13.621Z,76.17
2018-03-08T17:58:41.232Z,70.47
2018-03-08T18:01:08.859Z,77.00
2018-03-08T18:03:36.465Z,80.37
2018-03-08T18:06:04.092Z,68.70
2018-03-08T18:08:31.697Z,73.97
2018-03-08T18:10:59.399Z,68.70
2018-03-08T18:13:27.056Z,63.80
2018-03-08T18:15:54.688Z,65.20
2018-03-08T18:18:22.292Z,57.13
2018-03-08T18:20:49.916Z,61.03
2018-03-08T18:23:17.529Z,65.37
2018-03-08T18:25:45.156Z,59.50
2018-03-08T18:28:12.764Z,65.50
2018-03-08T18:30:40.398Z,59.47
2018-03-08T18:33:08.004Z,78.60
2018-03-08T18:35:35.716Z,58.23
2018-03-08T18:38:03.497Z,44.03
2018-03-08T18:40:31.140Z,45.17
2018-03-08T18:42:58.773Z,48.60
2018-03-08T18:45:26.468Z,55.63
2018-03-08T18:47:54.144Z,45.30
2018-03-08T18:50:21.918Z,45.30
2018-03-08T18:52:49.550Z,39.33
2018-03-08T18:55:17.224Z,67.17
2018-03-08T18:57:45.088Z,51.93
2018-03-08T19:00:12.752Z,43.77
2018-03-08T19:02:40.380Z,37.37
2018-03-08T19:05:07.980Z,36.53
2018-03-08T19:07:35.640Z,33.73
2018-03-08T19:10:03.245Z,36.77
2018-03-08T19:12:30.897Z,36.90
2018-03-08T19:14:58.500Z,31.00
2018-03-08T19:17:26.192Z,32.97
2018-03-08T19:19:53.824Z,31.33
2018-03-08T19:22:21.435Z,25.17
2018-03-08T19:24:49.068Z,25.53
2018-03-08T19:27:16.743Z,27.37
2018-03-08T19:29:44.395Z,19.73
2018-03-08T19:32:12.017Z,22.57
2018-03-08T19:34:39.648Z,22.70
2018-03-08T19:37:07.283Z,25.37
2018-03-08T19:39:34.930Z,19.30
2018-03-08T19:42:02.618Z,22.33
2018-03-08T19:44:30.289Z,24.63
2018-03-08T19:46:57.964Z,25.63
2018-03-08T19:49:25.700Z,17.20
2018-03-08T19:51:53.463Z,18.70
2018-03-08T19:54:21.117Z,17.57
2018-03-08T19:56:48.728Z,15.20
2018-03-08T19:59:16.705Z,17.60
2018-03-08T20:01:44.428Z,21.47
2018-03-08T20:04:12.394Z,20.77
2018-03-08T20:06:40.024Z,15.00
2018-03-08T20:09:08.381Z,15.07
2018-03-08T20:11:36.008Z,14.50
2018-03-08T20:14:03.926Z,15.00
2018-03-08T20:16:31.628Z,12.53
2018-03-08T20:18:59.232Z,18.83
2018-03-08T20:21:26.857Z,11.37
2018-03-08T20:23:54.520Z,14.17
2018-03-08T20:26:22.144Z,18.93
2018-03-08T20:28:49.753Z,33.03
2018-03-08T20:31:17.400Z,31.53
2018-03-08T20:33:45.019Z,35.80
2018-03-08T20:36:12.652Z,26.80
2018-03-08T20:38:40.292Z,23.70
2018-03-08T20:41:07.936Z,20.93
2018-03-08T20:43:35.543Z,23.47
2018-03-08T20:46:03.178Z,15.20
2018-03-08T20:48:30.835Z,11.03
2018-03-08T20:50:58.440Z,12.57
2018-03-08T20:53:26.160Z,8.30
2018-03-08T20:55:53.756Z,14.50
2018-03-08T20:58:21.488Z,8.43
2018-03-08T21:00:49.108Z,11.47
2018-03-08T21:03:16.731Z,16.63
2018-03-08T21:05:44.332Z,9.27
2018-03-08T21:08:11.956Z,10.57
2018-03-08T21:10:39.564Z,10.43
2018-03-08T21:13:07.192Z,11.97
2018-03-08T21:15:34.952Z,12.40
2018-03-08T21:18:02.460Z,8.13
2018-03-08T21:20:30.148Z,9.50
2018-03-08T21:22:57.772Z,10.50
2018-03-08T21:25:25.373Z,12.40
2018-03-08T21:27:52.999Z,10.80
2018-03-08T21:30:20.600Z,8.47
2018-03-08T21:32:48.408Z,12.30
2018-03-08T21:35:15.984Z,11.27
2018-03-08T21:37:43.584Z,12.33
2018-03-08T21:40:11.199Z,12.33
2018-03-08T21:42:38.904Z,10.63
2018-03-08T21:45:06.532Z,10.77
2018-03-08T21:47:34.137Z,14.00
2018-03-08T21:50:01.792Z,8.23
2018-03-08T21:52:29.401Z,8.17
2018-03-08T21:54:57.113Z,12.20
2018-03-08T21:57:24.704Z,8.33
2018-03-08T21:59:52.332Z,7.30
2018-03-08T22:02:19.999Z,14.07
2018-03-08T22:04:47.664Z,6.67
2018-03-08T22:07:15.328Z,9.27
2018-03-08T22:09:42.976Z,6.93
2018-03-08T22:12:10.581Z,7.07
2018-03-08T22:14:39.012Z,13.63
2018-03-08T22:17:06.637Z,7.60
2018-03-08T22:19:34.232Z,7.23
2018-03-08T22:22:01.921Z,8.50
2018-03-08T22:24:29.530Z,8.03
2018-03-08T22:26:57.148Z,7.20
2018-03-08T22:29:24.744Z,7.43
2018-03-08T22:31:52.367Z,6.20
2018-03-08T22:34:20.031Z,10.37
2018-03-08T22:36:47.688Z,6.63
2018-03-08T22:39:15.284Z,6.43
2018-03-08T22:41:43.016Z,13.27
2018-03-08T22:44:10.680Z,15.50
2018-03-08T22:46:38.320Z,9.27
2018-03-08T22:49:05.924Z,7.70
2018-03-08T22:51:33.563Z,7.93
2018-03-08T22:54:01.185Z,10.40
2018-03-08T22:56:28.777Z,9.33
2018-03-08T22:58:56.392Z,7.73
2018-03-08T23:04:35.432Z,9.10
2018-03-08T23:07:03.067Z,8.23
2018-03-08T23:09:30.691Z,10.60
2018-03-08T23:11:58.391Z,7.57
2018-03-08T23:14:26.093Z,11.50
2018-03-08T23:16:53.680Z,7.90
2018-03-08T23:19:21.377Z,7.73
2018-03-08T23:21:49.036Z,8.07
2018-03-08T23:24:16.676Z,7.40
2018-03-08T23:26:44.364Z,9.30
2018-03-08T23:29:12.028Z,11.50
2018-03-08T23:31:39.688Z,7.57
2018-03-08T23:34:07.291Z,7.43
2018-03-08T23:36:34.919Z,12.40
2018-03-08T23:39:02.515Z,7.93
2018-03-08T23:41:30.136Z,9.17
2018-03-08T23:43:57.807Z,9.40
2018-03-08T23:46:25.564Z,10.50
2018-03-08T23:48:53.224Z,9.17
2018-03-08T23:51:20.891Z,6.63
2018-03-08T23:53:48.513Z,10.93
2018-03-08T23:56:16.116Z,7.73
2018-03-08T23:58:43.741Z,6.77
